^^
Saratoga-Weather Station Historical Data
Daily Summary for February 16, 2021 Units:  English    Metric   Both
Daily Weekly Monthly Yearly Custom
  High: Low: Average:
Temperature: 26.1 °F 17.8 °F 21 °F
Dew Point: 24.8 °F 16.3 °F 19.6 °F
Humidity: 95% 92% 94%
Wind Speed: 0mph 0mph 0mph
Wind Gust: 0mph - -
Wind- -
Pressure: 30.4 in 30.3 in -
Precipitation: 0 in    
Historical Graphs
 
 
Tabular Data for February 16, 2021
Time Temperature Dew Point Pressure Wind Wind Speed Wind Gust Humidity Rainfall Rate (Hourly) solar
00:03 26.1 °F 24.8 °F 30.4 in Calm     95% 0 in 0 W/m2
00:08 25.9 °F 24.6 °F 30.4 in Calm     95% 0 in 0 W/m2
00:13 25.5 °F 24.1 °F 30.4 in Calm     94% 0 in 0 W/m2
00:18 25.2 °F 23.7 °F 30.4 in Calm     94% 0 in 0 W/m2
00:23 25 °F 23.5 °F 30.4 in Calm     94% 0 in 0 W/m2
00:28 24.6 °F 23.2 °F 30.4 in Calm     94% 0 in 0 W/m2
00:33 24.4 °F 23 °F 30.4 in Calm     94% 0 in 0 W/m2
00:38 24.3 °F 22.8 °F 30.4 in Calm     94% 0 in 0 W/m2
00:44 23.9 °F 22.5 °F 30.4 in Calm     94% 0 in 0 W/m2
00:49 23.5 °F 22.1 °F 30.4 in Calm     94% 0 in 0 W/m2
00:54 23.4 °F 21.9 °F 30.4 in Calm     94% 0 in 0 W/m2
00:59 23.2 °F 21.7 °F 30.4 in Calm     94% 0 in 0 W/m2
01:04 22.8 °F 21.4 °F 30.4 in Calm     94% 0 in 0 W/m2
01:09 22.8 °F 21.4 °F 30.4 in Calm     94% 0 in 0 W/m2
01:14 22.6 °F 21.2 °F 30.4 in Calm     94% 0 in 0 W/m2
01:19 22.6 °F 21.2 °F 30.4 in Calm     94% 0 in 0 W/m2
01:24 22.5 °F 21 °F 30.4 in Calm     94% 0 in 0 W/m2
01:29 22.5 °F 21 °F 30.4 in Calm     94% 0 in 0 W/m2
01:34 22.3 °F 21 °F 30.4 in Calm     95% 0 in 0 W/m2
01:39 22.1 °F 20.7 °F 30.4 in Calm     94% 0 in 0 W/m2
01:44 21.9 °F 20.5 °F 30.4 in Calm     94% 0 in 0 W/m2
01:49 21.9 °F 20.5 °F 30.4 in Calm     94% 0 in 0 W/m2
01:54 21.9 °F 20.7 °F 30.4 in Calm     95% 0 in 0 W/m2
01:59 21.7 °F 20.3 °F 30.4 in Calm     94% 0 in 0 W/m2
02:04 21.6 °F 20.1 °F 30.4 in Calm     94% 0 in 0 W/m2
02:09 21.6 °F 20.1 °F 30.4 in Calm     94% 0 in 0 W/m2
02:14 21.4 °F 19.9 °F 30.4 in Calm     94% 0 in 0 W/m2
02:19 21.4 °F 19.9 °F 30.4 in Calm     94% 0 in 0 W/m2
02:24 21.4 °F 20.1 °F 30.4 in Calm     95% 0 in 0 W/m2
02:29 21.2 °F 19.9 °F 30.4 in Calm     95% 0 in 0 W/m2
02:34 21 °F 19.6 °F 30.4 in Calm     94% 0 in 0 W/m2
02:39 21 °F 19.6 °F 30.4 in Calm     94% 0 in 0 W/m2
02:44 20.8 °F 19.4 °F 30.4 in Calm     94% 0 in 0 W/m2
02:49 20.7 °F 19.2 °F 30.4 in Calm     94% 0 in 0 W/m2
02:54 20.7 °F 19.2 °F 30.4 in Calm     94% 0 in 0 W/m2
02:59 20.7 °F 19.2 °F 30.4 in Calm     94% 0 in 0 W/m2
03:04 20.7 °F 19.2 °F 30.4 in Calm     94% 0 in 0 W/m2
03:09 20.7 °F 19.4 °F 30.4 in Calm     95% 0 in 0 W/m2
03:14 20.5 °F 19 °F 30.4 in Calm     94% 0 in 0 W/m2
03:19 20.3 °F 18.9 °F 30.4 in Calm     94% 0 in 0 W/m2
03:24 20.1 °F 18.7 °F 30.4 in Calm     94% 0 in 0 W/m2
03:29 20.1 °F 18.7 °F 30.4 in Calm     94% 0 in 0 W/m2
03:34 20.1 °F 18.9 °F 30.4 in Calm     95% 0 in 0 W/m2
03:39 20.1 °F 18.9 °F 30.4 in Calm     95% 0 in 0 W/m2
03:44 19.9 °F 18.5 °F 30.4 in Calm     94% 0 in 0 W/m2
03:49 19.8 °F 18.3 °F 30.4 in Calm     94% 0 in 0 W/m2
03:54 19.8 °F 18.3 °F 30.4 in Calm     94% 0 in 0 W/m2
03:59 19.8 °F 18.3 °F 30.4 in Calm     94% 0 in 0 W/m2
04:04 19.8 °F 18.3 °F 30.4 in Calm     94% 0 in 0 W/m2
04:09 19.6 °F 18.1 °F 30.4 in Calm     94% 0 in 0 W/m2
04:14 19.6 °F 18.1 °F 30.4 in Calm     94% 0 in 0 W/m2
04:19 19.6 °F 18.1 °F 30.4 in Calm     94% 0 in 0 W/m2
04:24 19.4 °F 18 °F 30.4 in Calm     94% 0 in 0 W/m2
04:29 19.4 °F 18 °F 30.4 in Calm     94% 0 in 0 W/m2
04:34 19.2 °F 17.8 °F 30.4 in Calm     94% 0 in 0 W/m2
04:39 19.2 °F 17.8 °F 30.4 in Calm     94% 0 in 0 W/m2
04:44 19.2 °F 17.8 °F 30.4 in Calm     94% 0 in 0 W/m2
04:49 19 °F 17.6 °F 30.4 in Calm     94% 0 in 0 W/m2
04:54 18.9 °F 17.4 °F 30.4 in Calm     94% 0 in 0 W/m2
04:59 18.9 °F 17.4 °F 30.4 in Calm     94% 0 in 0 W/m2
05:04 18.7 °F 17.2 °F 30.4 in Calm     94% 0 in 0 W/m2
05:14 18.5 °F 17.1 °F 30.4 in Calm     94% 0 in 0 W/m2
05:19 18.5 °F 17.1 °F 30.4 in Calm     94% 0 in 0 W/m2
05:24 18.5 °F 17.1 °F 30.4 in Calm     94% 0 in 0 W/m2
05:29 18.5 °F 17.1 °F 30.4 in Calm     94% 0 in 0 W/m2
05:34 18.5 °F 17.1 °F 30.4 in Calm     94% 0 in 0 W/m2
05:40 18.5 °F 17.1 °F 30.4 in Calm     94% 0 in 0 W/m2
05:45 18.7 °F 17.4 °F 30.4 in Calm     95% 0 in 0 W/m2
05:50 18.7 °F 17.4 °F 30.4 in Calm     95% 0 in 0 W/m2
05:55 18.7 °F 17.2 °F 30.4 in Calm     94% 0 in 0 W/m2
06:00 18.7 °F 17.2 °F 30.4 in Calm     94% 0 in 0 W/m2
06:05 18.5 °F 17.1 °F 30.4 in Calm     94% 0 in 0 W/m2
06:10 18.3 °F 16.9 °F 30.4 in Calm     94% 0 in 0 W/m2
06:15 18.1 °F 16.7 °F 30.4 in Calm     94% 0 in 0 W/m2
06:20 18.1 °F 16.7 °F 30.4 in Calm     94% 0 in 0 W/m2
06:25 18 °F 16.5 °F 30.4 in Calm     94% 0 in 0 W/m2
06:35 17.8 °F 16.3 °F 30.4 in Calm     94% 0 in 0 W/m2
06:40 17.8 °F 16.3 °F 30.4 in Calm     94% 0 in 0 W/m2
06:45 17.8 °F 16.3 °F 30.4 in Calm     94% 0 in 0 W/m2
06:50 18 °F 16.5 °F 30.4 in Calm     94% 0 in 0 W/m2
06:55 18.1 °F 16.9 °F 30.4 in Calm     95% 0 in 0 W/m2
07:00 18.3 °F 17.1 °F 30.4 in Calm     95% 0 in 0 W/m2
07:05 18.3 °F 16.9 °F 30.4 in Calm     94% 0 in 0 W/m2
07:10 18.3 °F 16.9 °F 30.4 in Calm     94% 0 in 0 W/m2
07:15 18.7 °F 17.4 °F 30.4 in Calm     95% 0 in 0 W/m2
07:20 18.9 °F 17.6 °F 30.4 in Calm     95% 0 in 0 W/m2
07:25 18.9 °F 17.6 °F 30.4 in Calm     95% 0 in 0 W/m2
07:30 19 °F 17.8 °F 30.4 in Calm     95% 0 in 0 W/m2
07:35 19.2 °F 18 °F 30.4 in Calm     95% 0 in 0 W/m2
07:40 19.4 °F 18.1 °F 30.4 in Calm     95% 0 in 0 W/m2
07:45 19.6 °F 18.3 °F 30.4 in Calm     95% 0 in 0 W/m2
07:50 19.8 °F 18.5 °F 30.4 in Calm     95% 0 in 0 W/m2
07:55 19.9 °F 18.7 °F 30.4 in Calm     95% 0 in 0 W/m2
08:00 19.9 °F 18.7 °F 30.4 in Calm     95% 0 in 0 W/m2
08:05 20.1 °F 18.9 °F 30.4 in Calm     95% 0 in 0 W/m2
08:10 20.1 °F 18.9 °F 30.4 in Calm     95% 0 in 0 W/m2
08:15 20.1 °F 18.9 °F 30.4 in Calm     95% 0 in 0 W/m2
08:20 20.1 °F 18.9 °F 30.4 in Calm     95% 0 in 0 W/m2
08:30 20.1 °F 18.9 °F 30.4 in Calm     95% 0 in 0 W/m2
08:35 20.3 °F 19 °F 30.4 in Calm     95% 0 in 0 W/m2
08:40 20.3 °F 19 °F 30.4 in Calm     95% 0 in 0 W/m2
08:45 20.5 °F 19.2 °F 30.4 in Calm     95% 0 in 0 W/m2
08:50 20.5 °F 19.2 °F 30.4 in Calm     95% 0 in 0 W/m2
08:55 20.7 °F 19.4 °F 30.4 in Calm     95% 0 in 0 W/m2
09:00 20.7 °F 19.4 °F 30.4 in Calm     95% 0 in 0 W/m2
09:05 20.7 °F 19.4 °F 30.4 in Calm     95% 0 in 5 W/m2
09:10 20.8 °F 19.6 °F 30.4 in Calm     95% 0 in 5 W/m2
09:15 20.8 °F 19.6 °F 30.4 in Calm     95% 0 in 5 W/m2
09:20 20.8 °F 19.6 °F 30.4 in Calm     95% 0 in 5 W/m2
09:25 20.8 °F 19.6 °F 30.4 in Calm     95% 0 in 5 W/m2
09:30 21 °F 19.8 °F 30.4 in Calm     95% 0 in 5 W/m2
09:35 21 °F 19.8 °F 30.4 in Calm     95% 0 in 7 W/m2
09:40 21.2 °F 19.9 °F 30.4 in Calm     95% 0 in 7 W/m2
09:45 21.4 °F 20.1 °F 30.4 in Calm     95% 0 in 11 W/m2
09:51 21.6 °F 20.3 °F 30.4 in Calm     95% 0 in 18 W/m2
09:56 21.7 °F 20.5 °F 30.4 in Calm     95% 0 in 19 W/m2
10:01 21.9 °F 20.7 °F 30.4 in Calm     95% 0 in 19 W/m2
10:06 21.9 °F 20.7 °F 30.4 in Calm     95% 0 in 19 W/m2
10:11 22.3 °F 21 °F 30.4 in Calm     95% 0 in 23 W/m2
10:16 22.5 °F 21 °F 30.4 in Calm     94% 0 in 25 W/m2
10:21 22.5 °F 21 °F 30.4 in Calm     94% 0 in 26 W/m2
10:26 22.6 °F 21.2 °F 30.4 in Calm     94% 0 in 23 W/m2
10:31 22.8 °F 21.6 °F 30.4 in Calm     95% 0 in 21 W/m2
10:36 22.8 °F 21.4 °F 30.4 in Calm     94% 0 in 21 W/m2
10:41 22.8 °F 21.4 °F 30.4 in Calm     94% 0 in 21 W/m2
10:46 22.8 °F 21.4 °F 30.4 in Calm     94% 0 in 21 W/m2
10:51 22.8 °F 21.4 °F 30.4 in Calm     94% 0 in 21 W/m2
10:56 22.8 °F 21.4 °F 30.4 in Calm     94% 0 in 21 W/m2
11:01 22.8 °F 21.4 °F 30.4 in Calm     94% 0 in 21 W/m2
11:06 23 °F 21.6 °F 30.4 in Calm     94% 0 in 23 W/m2
11:11 23.2 °F 21.7 °F 30.4 in Calm     94% 0 in 25 W/m2
11:16 23.4 °F 21.9 °F 30.4 in Calm     94% 0 in 25 W/m2
11:21 23.5 °F 22.1 °F 30.4 in Calm     94% 0 in 25 W/m2
11:26 23.7 °F 22.3 °F 30.4 in Calm     94% 0 in 26 W/m2
11:31 23.9 °F 22.5 °F 30.4 in Calm     94% 0 in 26 W/m2
11:36 23.9 °F 22.5 °F 30.3 in Calm     94% 0 in 26 W/m2
11:41 23.9 °F 22.1 °F 30.3 in Calm     93% 0 in 26 W/m2
11:46 23.9 °F 22.1 °F 30.3 in Calm     93% 0 in 25 W/m2
11:51 23.9 °F 22.1 °F 30.3 in Calm     93% 0 in 26 W/m2
11:56 23.7 °F 21.9 °F 30.3 in Calm     93% 0 in 26 W/m2
12:01 23.5 °F 21.7 °F 30.3 in Calm     93% 0 in 26 W/m2
12:06 23.5 °F 21.7 °F 30.3 in Calm     93% 0 in 26 W/m2
12:11 23.7 °F 21.9 °F 30.3 in Calm     93% 0 in 26 W/m2
12:16 23.7 °F 21.9 °F 30.3 in Calm     93% 0 in 26 W/m2
12:21 23.9 °F 21.9 °F 30.3 in Calm     92% 0 in 26 W/m2
Juneau County Weather
Compliments of Weather Underground - 2 mb